Fitzhugh, Mississippi
Current Conditions -  °F | °C
As of 10:15 AM on Thursday 29 Jan 2015 (Local Time) from KRNV Reporting Station
Clear Clear  
Wind Chill: 59°   Ceiling: Unl
Heat Index: 59°   Visibility: 10mi
Dew Point: 53°   Wind: 14mph
Humidity: 81%   Direction: 230°SW
Pressure: 30.16"   Gusts: NA
Location:  33.8731°N, 90.5512°W
Report Text: KRNV 291615Z AUTO 23012KT 10SM CLR 15/12 A3016 RMK AO2 T01500117
Loading
Personal Weather Stations






























Interactive Weather Map New forecast layout! Learn more

10-Day Weather Forecast

Advertisements
Track Severe Weather on mobile